CheckWX is a tool to help pilots better visualize weather data.  It is not intended as a substitute for an official pre-flight weather briefing.

19:10:47 UTC

KHJO METAR
Hanford Municipal Airport
Hanford, California, USA
Current

1 hour ago

KHJO 171753Z AUTO 35011KT 7SM FEW028 20/11 A2992 RMK AO2 SLP132 T02000111 10211 20122 50013
Observed
Oct-17 @ 17:53 UTC
Wind
  • 350° at 11 KTS
Visibility
7 SM
Flight Rules
VFR
Cloud Levels
  • Few at 2,800' AGL
Temperature
20°C / 68°F
Dewpoint
11°C / 52°F
Humidity
56%
Altimeter
29.92" Hg
Pressure
1013.22 hPa
Previous

2 hours ago

KHJO 171653Z AUTO 31013KT 9SM CLR 19/12 A2993 RMK AO2 SLP134 T01890117
Observed
Oct-17 @ 16:53 UTC
Wind
  • 310° at 13 KTS
Visibility
9 SM
Flight Rules
VFR
Cloud Levels
  • Clear skies
Temperature
19°C / 66°F
Dewpoint
12°C / 54°F
Humidity
64%
Altimeter
29.93" Hg
Pressure
1013.52 hPa
Previous

3 hours ago

KHJO 171553Z AUTO 32009KT 10SM CLR 17/12 A2991 RMK AO2 SLP128 T01670117
Observed
Oct-17 @ 15:53 UTC
Wind
  • 320° at 9 KTS
Visibility
10 SM
Flight Rules
VFR
Cloud Levels
  • Clear skies
Temperature
17°C / 63°F
Dewpoint
12°C / 54°F
Humidity
73%
Altimeter
29.91" Hg
Pressure
1012.92 hPa